Shubert, Nebraska
Current Conditions -  °F | °C
As of 4:53 AM on Monday 20 Oct 2014 (Local Time) from KFNB Reporting Station
Clear Clear  
Wind Chill: 51°   Ceiling: Unl
Heat Index: 51°   Visibility: 10mi
Dew Point: 48°   Wind: 7mph
Humidity: 89%   Direction: 270°W
Pressure: 29.97"   Gusts: NA
Location:  40.24°N, 95.68°W
Report Text: KFNB 200953Z AUTO 27006KT 10SM CLR 11/09 A2997 RMK AO2 SLP147 T01060089 $
Loading
Personal Weather Stations






























Interactive Weather Map
Tropical Storm Tracking
New forecast layout! Learn more

10-Day Weather Forecast

Advertisements
Track Severe Weather on mobile